YVD weather

Virden/R.J. (Bob) Andrew Field Regional Aerodrome
Virden, Manitoba, Canada

Public forecast

Using degrees Celsius for public forecast. Weather courtesy of forecast.io.

Closest aviation weather report (METAR) to Virden/R.J. (Bob) Andrew Field Regional Aerodrome

Closest report is Brandon Municipal Airport, 37.4 nm (69.3 km) E. Retrieved 2020/04/05 07:00 UTC (29 minutes ago):

CYBR 050700Z 10007KT 6SM -SN SCT013 OVC023 M05/M08 A2999 RMK SC4SC4 SLP184

Closest aviation forecast (TAF) to Virden/R.J. (Bob) Andrew Field Regional Aerodrome

Closest forecast is Brandon Municipal Airport, 37.4 nm (69.3 km) E. Retrieved 2020/04/05 06:42 UTC (47 minutes ago):

TAF CYBR 050539Z 0506/0518 12010KT P6SM BKN030 TEMPO 0506/0508 1SM -SHSN VV015 PROB30 0506/0508 3/4SM -SHSN VV008 FM050800 VRB03KT P6SM BKN015 TEMPO 0508/0510 5SM -SN BR BKN008 PROB30 0508/0510 2SM -FZDZ BR OVC004 FM051000 34005KT P6SM BKN015 TEMPO 0510/0516 2SM BR BKN006 PROB30 0510/0516 3/4SM BR BKN003 FM051600 34005KT P6SM BKN025 TEMPO 0516/0518 BKN012 RMK NXT FCST BY 051200Z